ATL weather

Hartsfield Jackson Atlanta International Airport
Atlanta, Georgia, United States

Public forecast

Using degrees Fahrenheit for public forecast. Weather courtesy of forecast.io.

Current aviation weather report (METAR) for Hartsfield Jackson Atlanta International Airport

Retrieved 2020/08/07 22:52 UTC (1 hour ago):

KATL 072252Z 28005KT 10SM FEW050 FEW200 32/18 A3006 RMK AO2 SLP166 LTG DSNT NE SE CB DSNT NE SE TCU DSNT N-NE T03220178

Aviation forecast (TAF) for Hartsfield Jackson Atlanta International Airport

Retrieved 2020/08/07 18:30 UTC (5 hours ago):

TAF KATL 071729Z 0718/0824 24004KT P6SM FEW025 SCT050 TEMPO 0720/0724 VRB15G25KT 4SM -TSRA BKN035CB FM080100 35004KT P6SM SCT050 SCT250 FM080300 01004KT P6SM SCT250 FM081500 31003KT P6SM FEW035 FM081900 30003KT P6SM VCSH SCT040